createdAt,value
2024-01-11T00:01:11.413Z,159.17
2024-01-11T00:03:39.658Z,151.30
2024-01-11T00:06:08.105Z,150.47
2024-01-11T00:08:36.302Z,156.63
2024-01-11T00:11:04.777Z,156.93
2024-01-11T00:13:35.313Z,154.40
2024-01-11T00:16:03.644Z,162.07
2024-01-11T00:18:31.802Z,156.17
2024-01-11T00:20:59.963Z,159.60
2024-01-11T00:23:28.066Z,156.10
2024-01-11T00:25:56.199Z,147.47
2024-01-11T00:28:24.300Z,143.27
2024-01-11T00:30:53.793Z,131.73
2024-01-11T00:33:22.001Z,139.27
2024-01-11T00:35:50.176Z,150.70
2024-01-11T00:38:18.730Z,141.30
2024-01-11T00:40:46.857Z,141.17
2024-01-11T00:43:15.085Z,138.07
2024-01-11T00:45:43.344Z,137.50
2024-01-11T00:48:12.976Z,145.30
2024-01-11T00:50:41.643Z,146.77
2024-01-11T00:53:10.562Z,138.40
2024-01-11T00:55:38.693Z,144.73
2024-01-11T00:58:08.690Z,143.90
2024-01-11T01:00:37.221Z,147.97
2024-01-11T01:03:05.995Z,142.23
2024-01-11T01:05:35.542Z,132.23
2024-01-11T01:08:03.725Z,128.77
2024-01-11T01:10:32.038Z,137.53
2024-01-11T01:13:01.427Z,136.07
2024-01-11T01:15:29.577Z,137.63
2024-01-11T01:17:57.834Z,139.67
2024-01-11T01:20:26.017Z,131.70
2024-01-11T01:22:55.861Z,131.10
2024-01-11T01:25:24.021Z,127.00
2024-01-11T01:27:52.334Z,131.53
2024-01-11T01:30:20.493Z,121.30
2024-01-11T01:32:48.828Z,124.33
2024-01-11T01:35:17.284Z,110.60
2024-01-11T01:37:45.639Z,117.70
2024-01-11T01:40:15.423Z,112.60
2024-01-11T01:42:45.064Z,107.97
2024-01-11T01:45:13.421Z,108.27
2024-01-11T01:47:43.245Z,114.43
2024-01-11T01:50:13.681Z,115.13
2024-01-11T01:52:44.712Z,120.93
2024-01-11T01:55:14.900Z,113.30
2024-01-11T01:57:44.701Z,125.37
2024-01-11T02:00:14.702Z,119.07
2024-01-11T02:02:46.899Z,113.23
2024-01-11T02:05:16.452Z,119.10
2024-01-11T02:07:45.352Z,120.60
2024-01-11T02:10:15.268Z,116.03
2024-01-11T02:12:44.053Z,113.53
2024-01-11T02:15:12.464Z,103.57
2024-01-11T02:17:42.013Z,115.87
2024-01-11T02:20:12.517Z,104.63
2024-01-11T02:22:43.424Z,107.63
2024-01-11T02:25:12.916Z,112.00
2024-01-11T02:27:48.365Z,109.30
2024-01-11T02:30:16.854Z,114.57
2024-01-11T02:32:47.355Z,112.10
2024-01-11T02:35:16.858Z,107.17
2024-01-11T02:37:46.024Z,105.23
2024-01-11T02:40:17.024Z,101.33
2024-01-11T02:42:45.069Z,95.07
2024-01-11T02:45:13.940Z,95.10
2024-01-11T02:47:42.611Z,95.00
2024-01-11T02:50:13.085Z,97.77
2024-01-11T02:52:41.355Z,97.90
2024-01-11T02:55:10.101Z,96.77
2024-01-11T02:57:39.590Z,95.90
2024-01-11T03:00:08.915Z,88.30
2024-01-11T03:02:37.200Z,87.90
2024-01-11T03:05:05.876Z,87.87
2024-01-11T03:07:34.182Z,86.53
2024-01-11T03:10:02.595Z,85.00
2024-01-11T03:12:30.676Z,77.77
2024-01-11T03:15:00.267Z,77.73
2024-01-11T03:17:28.489Z,72.13
2024-01-11T03:19:56.646Z,69.67
2024-01-11T03:22:24.772Z,68.33
2024-01-11T03:24:53.832Z,68.40
2024-01-11T03:27:21.962Z,60.73
2024-01-11T03:29:51.100Z,59.83
2024-01-11T03:32:20.565Z,61.97
2024-01-11T03:34:48.709Z,58.60
2024-01-11T03:37:17.807Z,51.57
2024-01-11T03:39:45.884Z,56.43
2024-01-11T03:42:13.967Z,57.63
2024-01-11T03:44:42.275Z,54.67
2024-01-11T03:47:10.515Z,58.27
2024-01-11T03:49:39.991Z,51.80
2024-01-11T03:52:09.234Z,52.30
2024-01-11T03:54:37.345Z,57.63
2024-01-11T03:57:05.849Z,60.70
2024-01-11T03:59:34.053Z,56.43
2024-01-11T04:02:14.192Z,57.90
2024-01-11T04:04:46.521Z,55.67
2024-01-11T04:07:14.972Z,56.90
2024-01-11T04:09:43.235Z,55.77
2024-01-11T04:12:11.525Z,55.93
2024-01-11T04:14:41.284Z,52.50
2024-01-11T04:17:09.458Z,53.67
2024-01-11T04:19:37.569Z,50.70
2024-01-11T04:22:07.091Z,52.90
2024-01-11T04:24:35.157Z,46.60
2024-01-11T04:27:03.222Z,46.63
2024-01-11T04:29:31.328Z,50.83
2024-01-11T04:31:59.928Z,52.83
2024-01-11T04:34:28.218Z,49.17
2024-01-11T04:36:56.353Z,55.13
2024-01-11T04:39:25.782Z,51.10
2024-01-11T04:41:53.856Z,57.80
2024-01-11T04:44:21.966Z,56.53
2024-01-11T04:46:50.149Z,49.60
2024-01-11T04:49:18.292Z,55.30
2024-01-11T04:51:46.398Z,56.00
2024-01-11T04:54:14.664Z,56.37
2024-01-11T04:56:44.203Z,55.90
2024-01-11T04:59:12.410Z,54.17
2024-01-11T05:01:40.827Z,55.13
2024-01-11T05:04:09.776Z,56.57
2024-01-11T05:06:38.209Z,58.43
2024-01-11T05:09:11.994Z,55.37
2024-01-11T05:11:52.660Z,53.87
2024-01-11T05:14:32.626Z,54.13
2024-01-11T05:17:01.887Z,57.83
2024-01-11T05:19:36.374Z,55.33
2024-01-11T05:22:06.335Z,57.53
2024-01-11T05:24:46.858Z,55.97
2024-01-11T05:27:16.560Z,55.13
2024-01-11T05:29:44.722Z,56.03
2024-01-11T05:32:21.306Z,55.70
2024-01-11T05:34:49.537Z,55.47
2024-01-11T05:37:17.644Z,52.00
2024-01-11T05:39:45.765Z,60.33
2024-01-11T05:42:14.401Z,55.03
2024-01-11T05:44:43.954Z,46.47
2024-01-11T05:47:12.215Z,56.33
2024-01-11T05:49:40.287Z,55.27
2024-01-11T05:52:08.354Z,46.97
2024-01-11T05:54:36.579Z,52.93
2024-01-11T05:57:05.343Z,49.97
2024-01-11T05:59:34.257Z,51.30
2024-01-11T06:02:03.773Z,51.20
2024-01-11T06:04:34.013Z,58.33
2024-01-11T06:07:02.106Z,56.13
2024-01-11T06:09:30.168Z,53.53
2024-01-11T06:11:58.270Z,53.37
2024-01-11T06:14:26.392Z,49.63
2024-01-11T06:16:55.039Z,50.33
2024-01-11T06:19:25.410Z,51.70
2024-01-11T06:21:53.534Z,46.17
2024-01-11T06:24:21.666Z,45.63
2024-01-11T06:26:49.961Z,47.00
2024-01-11T06:29:18.185Z,47.10
2024-01-11T06:31:46.296Z,47.70
2024-01-11T06:34:14.512Z,49.17
2024-01-11T06:36:43.995Z,47.57
2024-01-11T06:39:16.172Z,52.17
2024-01-11T06:41:44.489Z,45.57
2024-01-11T06:44:12.876Z,43.97
2024-01-11T06:46:42.532Z,44.27
2024-01-11T06:49:10.873Z,46.50
2024-01-11T06:51:40.195Z,46.67
2024-01-11T06:54:10.056Z,45.10
2024-01-11T06:56:38.276Z,43.57
2024-01-11T06:59:06.479Z,40.37
2024-01-11T07:01:34.686Z,41.53
2024-01-11T07:04:02.928Z,44.03
2024-01-11T07:06:31.101Z,45.77
2024-01-11T07:08:59.245Z,46.20
2024-01-11T07:11:28.800Z,42.97
2024-01-11T07:13:57.058Z,43.63
2024-01-11T07:16:26.269Z,45.97
2024-01-11T07:18:54.642Z,40.90
2024-01-11T07:21:30.573Z,48.27
2024-01-11T07:23:59.024Z,34.93
2024-01-11T07:26:29.023Z,41.70
2024-01-11T07:28:57.240Z,41.40
2024-01-11T07:31:25.416Z,40.97
2024-01-11T07:33:53.622Z,42.10
2024-01-11T07:36:21.950Z,44.77
2024-01-11T07:38:50.338Z,45.47
2024-01-11T07:41:18.608Z,44.40
2024-01-11T07:43:53.714Z,49.63
2024-01-11T07:46:32.739Z,48.07
2024-01-11T07:49:07.129Z,48.03
2024-01-11T07:51:36.809Z,45.07
2024-01-11T07:54:06.090Z,43.93
2024-01-11T07:56:34.568Z,43.43
2024-01-11T07:59:04.232Z,36.93
2024-01-11T08:01:32.363Z,34.30
2024-01-11T08:04:03.831Z,37.00
2024-01-11T08:06:33.282Z,37.43
2024-01-11T08:09:01.512Z,32.67
2024-01-11T08:11:31.109Z,31.33
2024-01-11T08:13:59.945Z,28.60
2024-01-11T08:16:29.480Z,32.07
2024-01-11T08:18:57.638Z,28.60
2024-01-11T08:21:26.038Z,27.03
2024-01-11T08:23:54.210Z,30.83
2024-01-11T08:26:23.138Z,26.17
2024-01-11T08:28:51.625Z,29.07
2024-01-11T08:31:19.727Z,30.03
2024-01-11T08:33:49.689Z,29.17
2024-01-11T08:36:17.988Z,32.03
2024-01-11T08:38:46.334Z,30.07
2024-01-11T08:41:14.579Z,31.23
2024-01-11T08:43:42.686Z,27.20
2024-01-11T08:46:10.805Z,32.87
2024-01-11T08:48:39.088Z,30.30
2024-01-11T08:51:11.159Z,30.67
2024-01-11T08:53:39.586Z,29.57
2024-01-11T08:56:07.957Z,32.23
2024-01-11T08:58:37.361Z,30.17
2024-01-11T09:01:05.733Z,32.40
2024-01-11T09:03:34.063Z,33.27
2024-01-11T09:06:02.464Z,32.40
2024-01-11T09:08:32.142Z,27.17
2024-01-11T09:11:00.582Z,21.70
2024-01-11T09:13:28.799Z,24.33
2024-01-11T09:15:57.413Z,29.23
2024-01-11T09:18:25.680Z,25.87
2024-01-11T09:20:54.163Z,24.60
2024-01-11T09:23:22.365Z,26.47
2024-01-11T09:25:51.879Z,25.50
2024-01-11T09:28:19.973Z,26.13
2024-01-11T09:30:48.132Z,27.87
2024-01-11T09:33:16.373Z,27.60
2024-01-11T09:35:44.644Z,26.43
2024-01-11T09:38:13.392Z,26.97
2024-01-11T09:40:42.312Z,26.73
2024-01-11T09:43:12.766Z,25.33
2024-01-11T09:45:41.999Z,24.87
2024-01-11T09:48:12.257Z,24.97
2024-01-11T09:50:42.057Z,27.63
2024-01-11T09:53:11.131Z,25.80
2024-01-11T09:55:39.518Z,27.73
2024-01-11T09:58:08.636Z,26.67
2024-01-11T10:00:38.375Z,26.07
2024-01-11T10:03:06.917Z,25.03
2024-01-11T10:05:36.819Z,24.40
2024-01-11T10:08:05.405Z,25.17
2024-01-11T10:10:33.871Z,25.47
2024-01-11T10:13:02.079Z,27.00
2024-01-11T10:15:30.238Z,24.93
2024-01-11T10:18:00.272Z,24.23
2024-01-11T10:20:31.196Z,24.03
2024-01-11T10:23:00.538Z,30.47
2024-01-11T10:25:29.881Z,22.77
2024-01-11T10:27:58.930Z,24.77
2024-01-11T10:30:27.450Z,25.97
2024-01-11T10:32:56.464Z,24.87
2024-01-11T10:35:26.420Z,25.37
2024-01-11T10:37:55.930Z,23.73
2024-01-11T10:40:26.867Z,24.87
2024-01-11T10:42:55.933Z,26.50
2024-01-11T10:45:24.173Z,26.37
2024-01-11T10:47:59.897Z,28.30
2024-01-11T10:50:36.372Z,26.10
2024-01-11T10:53:19.190Z,24.20
2024-01-11T10:55:48.210Z,28.10
2024-01-11T10:58:22.036Z,24.57
2024-01-11T11:00:51.954Z,24.77
2024-01-11T11:03:21.999Z,26.60
2024-01-11T11:05:53.493Z,27.83
2024-01-11T11:08:22.735Z,25.37
2024-01-11T11:10:51.300Z,25.97
2024-01-11T11:13:20.853Z,21.77
2024-01-11T11:15:49.921Z,24.50
2024-01-11T11:18:19.386Z,23.50
2024-01-11T11:20:49.447Z,24.33
2024-01-11T11:23:20.110Z,28.47
2024-01-11T11:25:49.513Z,27.83
2024-01-11T11:28:19.403Z,22.83
2024-01-11T11:30:51.151Z,23.63
2024-01-11T11:33:21.291Z,25.40
2024-01-11T11:35:50.361Z,24.60
2024-01-11T11:38:24.067Z,26.90
2024-01-11T11:40:55.003Z,24.67
2024-01-11T11:43:24.199Z,21.80
2024-01-11T11:45:54.137Z,21.60
2024-01-11T11:48:52.105Z,20.97
2024-01-11T11:51:22.640Z,22.27
2024-01-11T11:53:54.499Z,22.30
2024-01-11T11:56:25.025Z,20.67
2024-01-11T11:58:55.900Z,22.80
2024-01-11T12:01:24.308Z,20.93
2024-01-11T12:03:52.912Z,21.60
2024-01-11T12:06:24.759Z,23.00
2024-01-11T12:08:57.604Z,21.83
2024-01-11T12:11:27.737Z,25.70
2024-01-11T12:13:58.374Z,25.13
2024-01-11T12:16:26.915Z,22.73
2024-01-11T12:18:55.812Z,23.83
2024-01-11T12:21:24.017Z,22.63
2024-01-11T12:23:52.213Z,25.80
2024-01-11T12:26:23.950Z,25.70
2024-01-11T12:28:54.567Z,26.73
2024-01-11T12:31:24.135Z,26.00
2024-01-11T12:33:53.011Z,28.60
2024-01-11T12:36:22.012Z,29.43
2024-01-11T12:38:52.888Z,29.93
2024-01-11T12:41:25.309Z,26.83
2024-01-11T12:43:54.416Z,27.77
2024-01-11T12:46:22.656Z,31.47
2024-01-11T12:48:52.295Z,29.40
2024-01-11T12:51:22.264Z,29.03
2024-01-11T12:53:51.693Z,31.20
2024-01-11T12:56:22.600Z,30.27
2024-01-11T12:58:53.890Z,31.97
2024-01-11T13:01:22.576Z,33.70
2024-01-11T13:03:51.210Z,30.17
2024-01-11T13:06:22.237Z,29.10
2024-01-11T13:08:50.848Z,31.53
2024-01-11T13:11:22.221Z,32.10
2024-01-11T13:13:50.740Z,32.73
2024-01-11T13:16:20.619Z,35.47
2024-01-11T13:18:49.056Z,33.53
2024-01-11T13:21:17.306Z,34.73
2024-01-11T13:23:45.531Z,28.87
2024-01-11T13:26:13.723Z,33.47
2024-01-11T13:28:45.039Z,34.17
2024-01-11T13:31:13.247Z,34.57
2024-01-11T13:33:43.006Z,34.63
2024-01-11T13:36:20.330Z,34.00
2024-01-11T13:38:48.449Z,33.77
2024-01-11T13:41:17.536Z,36.03
2024-01-11T13:43:45.741Z,35.53
2024-01-11T13:46:17.716Z,35.73
2024-01-11T13:48:49.469Z,35.63
2024-01-11T13:51:17.727Z,38.47
2024-01-11T13:53:46.650Z,36.30
2024-01-11T13:56:14.954Z,39.53
2024-01-11T13:58:44.800Z,39.57
2024-01-11T14:01:13.548Z,38.97
2024-01-11T14:03:41.740Z,36.83
2024-01-11T14:06:11.439Z,41.80
2024-01-11T14:08:39.651Z,42.33
2024-01-11T14:11:07.804Z,38.93
2024-01-11T14:13:36.012Z,39.53
2024-01-11T14:16:04.548Z,40.10
2024-01-11T14:18:32.937Z,39.73
2024-01-11T14:21:01.578Z,39.00
2024-01-11T14:23:31.172Z,40.20
2024-01-11T14:25:59.582Z,40.93
2024-01-11T14:28:27.803Z,42.57
2024-01-11T14:30:56.131Z,45.73
2024-01-11T14:33:24.829Z,46.73
2024-01-11T14:35:53.008Z,45.17
2024-01-11T14:38:21.248Z,45.93
2024-01-11T14:40:53.304Z,48.73
2024-01-11T14:43:22.834Z,46.07
2024-01-11T14:48:44.484Z,48.30
2024-01-11T14:51:13.784Z,51.53
2024-01-11T14:53:43.363Z,49.20
2024-01-11T14:56:15.427Z,48.37
2024-01-11T14:58:44.397Z,50.33
2024-01-11T15:01:14.082Z,53.43
2024-01-11T15:03:42.511Z,65.37
2024-01-11T15:06:10.850Z,57.43
2024-01-11T15:08:39.805Z,58.10
2024-01-11T15:11:08.025Z,67.07
2024-01-11T15:13:37.604Z,62.90
2024-01-11T15:16:07.184Z,64.63
2024-01-11T15:18:35.388Z,65.67
2024-01-11T15:21:03.979Z,63.83
2024-01-11T15:23:32.130Z,61.10
2024-01-11T15:26:00.265Z,67.13
2024-01-11T15:28:28.413Z,66.50
2024-01-11T15:30:58.034Z,65.40
2024-01-11T15:33:26.352Z,62.27
2024-01-11T15:35:55.204Z,60.20
2024-01-11T15:38:23.388Z,64.23
2024-01-11T15:40:51.504Z,58.63
2024-01-11T15:43:19.562Z,59.07
2024-01-11T15:45:47.695Z,55.83
2024-01-11T15:48:17.283Z,59.17
2024-01-11T15:50:47.058Z,58.37
2024-01-11T15:53:33.820Z,59.97
2024-01-11T15:56:02.032Z,65.43
2024-01-11T15:58:30.149Z,62.53
2024-01-11T16:00:58.199Z,66.50
2024-01-11T16:03:27.705Z,63.57
2024-01-11T16:05:56.009Z,64.07
2024-01-11T16:08:25.484Z,60.30
2024-01-11T16:10:53.542Z,61.20
2024-01-11T16:13:21.759Z,68.43
2024-01-11T16:15:50.237Z,63.67
2024-01-11T16:18:18.992Z,64.60
2024-01-11T16:20:51.042Z,63.37
2024-01-11T16:23:20.782Z,57.50
2024-01-11T16:25:48.934Z,62.10
2024-01-11T16:28:17.329Z,63.27
2024-01-11T16:30:46.398Z,60.30
2024-01-11T16:33:14.590Z,58.73
2024-01-11T16:35:52.468Z,62.23
2024-01-11T16:38:28.085Z,58.70
2024-01-11T16:40:56.210Z,60.27
2024-01-11T16:43:24.489Z,61.87
2024-01-11T16:45:52.724Z,56.30
2024-01-11T16:48:21.015Z,57.70
2024-01-11T16:50:49.483Z,56.57
2024-01-11T16:53:17.707Z,61.30
2024-01-11T16:55:47.322Z,59.37
2024-01-11T16:58:15.504Z,58.37
2024-01-11T17:00:46.264Z,61.90
2024-01-11T17:03:14.717Z,64.80
2024-01-11T17:05:43.248Z,56.83
2024-01-11T17:08:11.784Z,61.53
2024-01-11T17:10:40.584Z,65.43
2024-01-11T17:13:10.122Z,67.00
2024-01-11T17:15:38.306Z,63.07
2024-01-11T17:18:06.913Z,60.33
2024-01-11T17:20:35.768Z,61.70
2024-01-11T17:23:03.936Z,58.30
2024-01-11T17:25:32.163Z,60.57
2024-01-11T17:28:00.258Z,59.80
2024-01-11T17:30:29.887Z,61.03
2024-01-11T17:32:58.057Z,57.10
2024-01-11T17:35:26.355Z,61.77
2024-01-11T17:37:54.673Z,65.17
2024-01-11T17:40:22.842Z,60.50
2024-01-11T17:42:50.902Z,57.83
2024-01-11T17:45:19.220Z,60.43
2024-01-11T17:47:48.899Z,66.37
2024-01-11T17:50:17.153Z,61.23
2024-01-11T17:52:47.091Z,63.43
2024-01-11T17:55:16.182Z,61.50
2024-01-11T17:57:44.291Z,63.87
2024-01-11T18:00:15.865Z,61.30
2024-01-11T18:02:44.185Z,59.30
2024-01-11T18:05:14.508Z,61.13
2024-01-11T18:07:42.661Z,59.77
2024-01-11T18:10:11.297Z,56.70
2024-01-11T18:12:41.677Z,57.30
2024-01-11T18:15:11.318Z,56.63
2024-01-11T18:17:42.023Z,58.43
2024-01-11T18:20:11.296Z,56.90
2024-01-11T18:22:43.786Z,64.53
2024-01-11T18:25:12.159Z,55.97
2024-01-11T18:27:42.063Z,57.77
2024-01-11T18:30:13.278Z,59.70
2024-01-11T18:32:41.979Z,59.87
2024-01-11T18:35:10.886Z,59.90
2024-01-11T18:37:41.008Z,66.27
2024-01-11T18:40:10.074Z,62.43
2024-01-11T18:42:38.142Z,62.97
2024-01-11T18:45:07.350Z,60.57
2024-01-11T18:47:35.552Z,65.97
2024-01-11T18:50:05.623Z,64.90
2024-01-11T18:52:33.930Z,60.10
2024-01-11T18:55:12.567Z,61.13
2024-01-11T18:57:45.433Z,58.93
2024-01-11T19:00:13.981Z,56.20
2024-01-11T19:02:42.291Z,49.30
2024-01-11T19:05:14.046Z,57.37
2024-01-11T19:07:42.361Z,61.30
2024-01-11T19:10:14.133Z,55.93
2024-01-11T19:12:42.249Z,59.87
2024-01-11T19:15:11.227Z,60.87
2024-01-11T19:17:45.789Z,58.97
2024-01-11T19:20:14.759Z,60.00
2024-01-11T19:22:48.968Z,55.30
2024-01-11T19:25:18.786Z,56.60
2024-01-11T19:27:46.864Z,58.63
2024-01-11T19:30:15.780Z,58.13
2024-01-11T19:32:44.495Z,57.17
2024-01-11T19:35:13.308Z,56.57
2024-01-11T19:37:46.427Z,59.03
2024-01-11T19:40:19.095Z,59.40
2024-01-11T19:42:48.190Z,57.70
2024-01-11T19:45:17.034Z,55.20
2024-01-11T19:47:47.681Z,59.20
2024-01-11T19:50:16.022Z,56.03
2024-01-11T19:52:44.218Z,58.17
2024-01-11T19:55:12.598Z,58.53
2024-01-11T19:57:44.917Z,63.07
2024-01-11T20:00:15.061Z,57.47
2024-01-11T20:02:43.297Z,58.97
2024-01-11T20:05:14.717Z,63.17
2024-01-11T20:07:44.980Z,59.23
2024-01-11T20:10:14.037Z,61.60
2024-01-11T20:12:46.795Z,62.17
2024-01-11T20:15:19.362Z,59.70
2024-01-11T20:17:48.116Z,55.50
2024-01-11T20:20:16.497Z,57.20
2024-01-11T20:22:44.597Z,62.53
2024-01-11T20:25:14.426Z,58.80
2024-01-11T20:27:48.361Z,61.50
2024-01-11T20:30:16.896Z,59.10
2024-01-11T20:32:45.390Z,59.20
2024-01-11T20:35:15.572Z,57.47
2024-01-11T20:37:43.757Z,56.93
2024-01-11T20:40:15.131Z,58.50
2024-01-11T20:42:44.738Z,63.17
2024-01-11T20:45:15.568Z,61.17
2024-01-11T20:47:56.434Z,61.30
2024-01-11T20:50:24.795Z,57.60
2024-01-11T20:52:52.977Z,57.93
2024-01-11T20:55:23.580Z,56.53
2024-01-11T20:57:55.560Z,56.43
2024-01-11T21:00:31.233Z,57.20
2024-01-11T21:03:05.923Z,52.00
2024-01-11T21:05:34.157Z,51.77
2024-01-11T21:08:04.484Z,56.93
2024-01-11T21:10:32.842Z,55.60
2024-01-11T21:13:02.361Z,54.93
2024-01-11T21:15:30.514Z,52.60
2024-01-11T21:17:58.710Z,55.97
2024-01-11T21:20:27.713Z,56.27
2024-01-11T21:22:55.851Z,56.23
2024-01-11T21:25:24.869Z,53.97
2024-01-11T21:27:56.295Z,60.33
2024-01-11T21:30:25.832Z,57.60
2024-01-11T21:32:54.573Z,57.33
2024-01-11T21:35:22.771Z,53.30
2024-01-11T21:37:51.196Z,56.20
2024-01-11T21:40:20.410Z,57.03
2024-01-11T21:42:48.566Z,54.90
2024-01-11T21:45:17.027Z,50.57
2024-01-11T21:47:48.373Z,54.27
2024-01-11T21:50:17.775Z,57.00
2024-01-11T21:52:47.245Z,55.27
2024-01-11T21:55:15.526Z,54.57
2024-01-11T21:57:43.602Z,52.30
2024-01-11T22:00:13.382Z,54.97
2024-01-11T22:02:41.527Z,51.53
2024-01-11T22:05:13.391Z,51.53
2024-01-11T22:07:41.559Z,58.67
2024-01-11T22:10:10.906Z,49.43
2024-01-11T22:12:39.020Z,50.70
2024-01-11T22:15:09.238Z,52.17
2024-01-11T22:17:38.020Z,49.33
2024-01-11T22:20:07.181Z,49.83
2024-01-11T22:22:37.293Z,54.10
2024-01-11T22:25:06.144Z,52.90
2024-01-11T22:27:34.610Z,54.93
2024-01-11T22:30:03.914Z,53.00
2024-01-11T22:32:32.129Z,53.10
2024-01-11T22:35:00.289Z,50.23
2024-01-11T22:37:31.128Z,50.97
2024-01-11T22:40:00.589Z,54.80
2024-01-11T22:42:30.088Z,51.83
2024-01-11T22:44:58.329Z,55.97
2024-01-11T22:47:27.646Z,53.07
2024-01-11T22:49:55.946Z,54.07
2024-01-11T22:52:24.032Z,49.43
2024-01-11T22:54:52.085Z,44.67
2024-01-11T22:57:21.494Z,52.03
2024-01-11T22:59:50.826Z,45.87
2024-01-11T23:02:19.118Z,45.63
2024-01-11T23:04:47.270Z,43.30
2024-01-11T23:07:15.296Z,36.87
2024-01-11T23:09:43.510Z,39.43
2024-01-11T23:12:11.655Z,32.40
2024-01-11T23:14:41.142Z,33.40
2024-01-11T23:17:09.222Z,33.60
2024-01-11T23:19:37.258Z,33.97
2024-01-11T23:22:05.475Z,32.50
2024-01-11T23:24:33.658Z,30.47
2024-01-11T23:27:01.963Z,31.90
2024-01-11T23:29:30.344Z,33.33
2024-01-11T23:32:01.925Z,31.80
2024-01-11T23:34:29.965Z,33.90
2024-01-11T23:36:58.016Z,32.57
2024-01-11T23:39:26.146Z,33.70
2024-01-11T23:41:55.591Z,34.63
2024-01-11T23:44:23.767Z,30.97
2024-01-11T23:46:53.105Z,32.07
2024-01-11T23:49:23.152Z,33.30
2024-01-11T23:51:51.408Z,34.27
2024-01-11T23:54:19.469Z,32.87
2024-01-11T23:56:47.916Z,34.70
2024-01-11T23:59:19.578Z,36.17
